createdAt,value
2016-12-25T00:00:59.212Z,0
2016-12-25T00:01:58.644Z,0
2016-12-25T00:02:58.233Z,0
2016-12-25T00:03:58.173Z,0
2016-12-25T00:04:58.835Z,0
2016-12-25T00:05:59.486Z,0
2016-12-25T00:06:59.286Z,0
2016-12-25T00:07:58.050Z,0
2016-12-25T00:08:59.760Z,0
2016-12-25T00:09:59.137Z,0
2016-12-25T00:10:59.549Z,0
2016-12-25T00:11:59.406Z,0
2016-12-25T00:12:58.703Z,0
2016-12-25T00:14:00.386Z,0
2016-12-25T00:14:59.360Z,0
2016-12-25T00:15:59.324Z,0
2016-12-25T00:16:58.271Z,0
2016-12-25T00:17:58.864Z,0
2016-12-25T00:18:58.930Z,0
2016-12-25T00:19:58.721Z,0
2016-12-25T00:20:57.666Z,0
2016-12-25T00:21:58.692Z,0
2016-12-25T00:22:58.824Z,0
2016-12-25T00:23:58.745Z,0
2016-12-25T00:24:58.467Z,0
2016-12-25T00:25:58.460Z,0
2016-12-25T00:26:58.057Z,0
2016-12-25T00:27:58.432Z,0
2016-12-25T00:28:58.652Z,0
2016-12-25T00:29:59.388Z,0
2016-12-25T00:30:58.988Z,0
2016-12-25T00:31:58.083Z,0
2016-12-25T00:32:58.609Z,0
2016-12-25T00:33:58.553Z,0
2016-12-25T00:34:59.267Z,0
2016-12-25T00:35:59.301Z,0
2016-12-25T00:36:58.648Z,0
2016-12-25T00:37:58.947Z,0
2016-12-25T00:38:59.231Z,0
2016-12-25T00:39:58.864Z,0
2016-12-25T00:40:57.965Z,0
2016-12-25T00:41:58.510Z,0
2016-12-25T00:42:58.632Z,0
2016-12-25T00:43:58.137Z,0
2016-12-25T00:44:59.790Z,0
2016-12-25T00:45:59.202Z,0
2016-12-25T00:46:59.258Z,0
2016-12-25T00:47:58.597Z,0
2016-12-25T00:48:58.842Z,0
2016-12-25T00:49:59.720Z,0
2016-12-25T00:50:59.475Z,0
2016-12-25T00:51:59.482Z,0
2016-12-25T00:52:59.073Z,0
2016-12-25T00:53:59.281Z,0
2016-12-25T00:54:59.029Z,0
2016-12-25T00:55:59.233Z,0
2016-12-25T00:56:59.075Z,0
2016-12-25T00:57:59.113Z,0
2016-12-25T00:58:59.412Z,0
2016-12-25T00:59:59.567Z,0
2016-12-25T01:00:59.863Z,0
2016-12-25T01:01:58.966Z,0
2016-12-25T01:02:59.689Z,0
2016-12-25T01:03:58.417Z,0
2016-12-25T01:04:59.348Z,0
2016-12-25T01:05:59.140Z,0
2016-12-25T01:06:59.336Z,0
2016-12-25T01:07:58.760Z,0
2016-12-25T01:08:59.308Z,0
2016-12-25T01:09:58.671Z,0
2016-12-25T01:10:58.514Z,0
2016-12-25T01:11:59.162Z,0
2016-12-25T01:12:59.700Z,0
2016-12-25T01:14:00.132Z,0
2016-12-25T01:14:59.434Z,0
2016-12-25T01:15:59.408Z,0
2016-12-25T01:16:59.144Z,0
2016-12-25T01:18:00.923Z,0
2016-12-25T01:18:59.096Z,0
2016-12-25T01:19:59.893Z,0
2016-12-25T01:20:59.219Z,0
2016-12-25T01:21:59.209Z,0
2016-12-25T01:22:59.045Z,0
2016-12-25T01:24:00.021Z,0
2016-12-25T01:24:59.177Z,0
2016-12-25T01:26:00.576Z,0
2016-12-25T01:27:00.072Z,0
2016-12-25T01:27:59.613Z,0
2016-12-25T01:28:59.549Z,0
2016-12-25T01:30:01.668Z,0
2016-12-25T01:30:59.359Z,0
2016-12-25T01:31:59.432Z,0
2016-12-25T01:32:59.325Z,0
2016-12-25T01:33:59.295Z,0
2016-12-25T01:34:59.281Z,0
2016-12-25T01:35:59.341Z,0
2016-12-25T01:36:59.990Z,0
2016-12-25T01:38:00.437Z,0
2016-12-25T01:39:00.604Z,0
2016-12-25T01:39:59.277Z,0
2016-12-25T01:40:59.826Z,0
2016-12-25T01:41:59.795Z,0
2016-12-25T01:42:59.586Z,0
2016-12-25T01:44:01.340Z,0
2016-12-25T01:45:00.259Z,0
2016-12-25T01:45:59.903Z,0
2016-12-25T01:46:59.860Z,0
2016-12-25T01:47:59.927Z,0
2016-12-25T01:49:00.725Z,0
2016-12-25T01:49:59.287Z,0
2016-12-25T01:51:00.175Z,0
2016-12-25T01:51:59.992Z,0
2016-12-25T01:52:59.649Z,0
2016-12-25T01:53:59.349Z,0
2016-12-25T01:55:00.581Z,0
2016-12-25T01:56:00.211Z,0
2016-12-25T01:56:59.226Z,0
2016-12-25T01:58:00.006Z,0
2016-12-25T01:58:59.560Z,0
2016-12-25T02:00:00.922Z,0
2016-12-25T02:00:59.889Z,0
2016-12-25T02:02:00.592Z,0
2016-12-25T02:03:00.990Z,0
2016-12-25T02:04:00.888Z,0
2016-12-25T02:05:00.781Z,0
2016-12-25T02:06:01.170Z,0
2016-12-25T02:07:01.195Z,0
2016-12-25T02:08:00.315Z,0
2016-12-25T02:08:59.922Z,0
2016-12-25T02:10:00.554Z,0
2016-12-25T02:11:01.171Z,0
2016-12-25T02:11:59.730Z,0
2016-12-25T02:13:00.762Z,0
2016-12-25T02:14:00.286Z,0
2016-12-25T02:14:59.840Z,0
2016-12-25T02:16:00.452Z,0
2016-12-25T02:17:00.807Z,0
2016-12-25T02:18:00.474Z,0
2016-12-25T02:18:59.874Z,0
2016-12-25T02:20:00.403Z,0
2016-12-25T02:21:00.985Z,0
2016-12-25T02:22:00.314Z,0
2016-12-25T02:23:01.147Z,0
2016-12-25T02:24:00.995Z,0
2016-12-25T02:25:01.387Z,0
2016-12-25T02:26:00.708Z,0
2016-12-25T02:27:01.150Z,0
2016-12-25T02:28:00.375Z,0
2016-12-25T02:29:01.175Z,0
2016-12-25T02:30:00.028Z,0
2016-12-25T02:31:01.030Z,0
2016-12-25T02:32:01.243Z,0
2016-12-25T02:33:01.451Z,0
2016-12-25T02:34:01.047Z,0
2016-12-25T02:35:01.207Z,0
2016-12-25T02:36:01.820Z,0
2016-12-25T02:37:00.810Z,0
2016-12-25T02:38:00.807Z,0
2016-12-25T02:39:01.253Z,0
2016-12-25T02:40:00.836Z,0
2016-12-25T02:41:00.430Z,0
2016-12-25T02:42:01.208Z,0
2016-12-25T02:43:01.937Z,0
2016-12-25T02:44:01.595Z,0
2016-12-25T02:45:01.064Z,0
2016-12-25T02:46:01.739Z,0
2016-12-25T02:47:01.243Z,0
2016-12-25T02:48:01.540Z,0
2016-12-25T02:49:00.764Z,0
2016-12-25T02:50:00.744Z,0
2016-12-25T02:51:00.944Z,0
2016-12-25T02:52:02.241Z,0
2016-12-25T02:53:00.993Z,0
2016-12-25T02:54:01.547Z,0
2016-12-25T02:55:01.190Z,0
2016-12-25T02:56:00.979Z,0
2016-12-25T02:57:01.647Z,0
2016-12-25T02:58:00.797Z,0
2016-12-25T02:59:01.013Z,0
2016-12-25T03:00:01.341Z,0
2016-12-25T03:01:01.390Z,0
2016-12-25T03:02:00.503Z,0
2016-12-25T03:03:01.328Z,0
2016-12-25T03:04:00.687Z,0
2016-12-25T03:05:02.546Z,0
2016-12-25T03:06:00.797Z,0
2016-12-25T03:07:01.705Z,0
2016-12-25T03:08:01.027Z,0
2016-12-25T03:09:01.779Z,0
2016-12-25T03:10:01.809Z,0
2016-12-25T03:11:01.623Z,0
2016-12-25T03:12:00.981Z,0
2016-12-25T03:13:00.991Z,0
2016-12-25T03:14:02.268Z,0
2016-12-25T03:15:01.516Z,0
2016-12-25T03:16:07.424Z,0
2016-12-25T03:17:01.066Z,0
2016-12-25T03:18:00.642Z,0
2016-12-25T03:19:02.179Z,0
2016-12-25T03:20:01.485Z,0
2016-12-25T03:21:01.571Z,0
2016-12-25T03:22:00.931Z,0
2016-12-25T03:23:01.785Z,0
2016-12-25T03:24:01.802Z,0
2016-12-25T03:25:01.496Z,0
2016-12-25T03:26:01.811Z,0
2016-12-25T03:27:01.155Z,0
2016-12-25T03:28:01.136Z,0
2016-12-25T03:29:01.480Z,0
2016-12-25T03:30:01.663Z,0
2016-12-25T03:31:01.013Z,0
2016-12-25T03:32:01.885Z,0
2016-12-25T03:33:01.083Z,0
2016-12-25T03:34:02.056Z,0
2016-12-25T03:35:01.661Z,0
2016-12-25T03:36:01.607Z,0
2016-12-25T03:37:00.796Z,0
2016-12-25T03:38:03.042Z,0
2016-12-25T03:39:02.634Z,0
2016-12-25T03:40:01.183Z,0
2016-12-25T03:41:01.536Z,0
2016-12-25T03:42:01.627Z,0
2016-12-25T03:43:01.914Z,0
2016-12-25T03:44:02.526Z,0
2016-12-25T03:45:01.749Z,0
2016-12-25T03:46:02.088Z,0
2016-12-25T03:47:01.531Z,0
2016-12-25T03:48:01.314Z,0
2016-12-25T03:49:02.589Z,0
2016-12-25T03:50:02.059Z,0
2016-12-25T03:51:02.460Z,0
2016-12-25T03:52:02.072Z,0
2016-12-25T03:53:01.552Z,0
2016-12-25T03:54:01.782Z,0
2016-12-25T03:55:02.839Z,0
2016-12-25T03:56:01.575Z,0
2016-12-25T03:57:02.038Z,0
2016-12-25T03:58:02.013Z,0
2016-12-25T03:59:02.158Z,0
2016-12-25T04:00:01.493Z,0
2016-12-25T04:01:02.291Z,0
2016-12-25T04:02:02.034Z,0
2016-12-25T04:03:02.503Z,0
2016-12-25T04:04:01.959Z,0
2016-12-25T04:05:01.850Z,0
2016-12-25T04:06:02.104Z,0
2016-12-25T04:07:03.052Z,0
2016-12-25T04:08:01.501Z,0
2016-12-25T04:09:02.842Z,0
2016-12-25T04:10:02.454Z,0
2016-12-25T04:11:01.678Z,0
2016-12-25T04:12:01.974Z,0
2016-12-25T04:13:01.399Z,0
2016-12-25T04:14:02.744Z,0
2016-12-25T04:15:03.392Z,0
2016-12-25T04:16:01.671Z,0
2016-12-25T04:17:02.487Z,0
2016-12-25T04:18:02.852Z,0
2016-12-25T04:19:02.355Z,0
2016-12-25T04:20:01.862Z,0
2016-12-25T04:21:02.370Z,0
2016-12-25T04:22:01.349Z,0
2016-12-25T04:23:02.706Z,0
2016-12-25T04:24:02.026Z,0
2016-12-25T04:25:02.218Z,0
2016-12-25T04:26:02.550Z,0
2016-12-25T04:27:02.287Z,0
2016-12-25T04:28:03.653Z,0
2016-12-25T04:29:02.331Z,0
2016-12-25T04:30:03.569Z,0
2016-12-25T04:31:03.342Z,0
2016-12-25T04:32:02.453Z,0
2016-12-25T04:33:01.783Z,0
2016-12-25T04:34:02.222Z,0
2016-12-25T04:35:02.179Z,0
2016-12-25T04:36:02.933Z,0
2016-12-25T04:37:02.112Z,0
2016-12-25T04:38:02.110Z,0
2016-12-25T04:39:04.521Z,0
2016-12-25T04:40:03.526Z,0
2016-12-25T04:41:03.983Z,0
2016-12-25T04:42:02.920Z,0
2016-12-25T04:43:02.976Z,0
2016-12-25T04:44:03.675Z,0
2016-12-25T04:45:01.975Z,0
2016-12-25T04:46:02.689Z,0
2016-12-25T04:47:03.398Z,0
2016-12-25T04:48:02.620Z,0
2016-12-25T04:49:03.575Z,0
2016-12-25T04:50:02.604Z,0
2016-12-25T04:51:03.372Z,0
2016-12-25T04:52:03.130Z,0
2016-12-25T04:53:02.810Z,0
2016-12-25T04:54:02.790Z,0
2016-12-25T04:55:02.388Z,0
2016-12-25T04:56:02.374Z,0
2016-12-25T04:57:04.352Z,0
2016-12-25T04:58:03.385Z,0
2016-12-25T04:59:02.574Z,0
2016-12-25T05:00:02.734Z,0
2016-12-25T05:01:03.085Z,0
2016-12-25T05:02:02.895Z,0
2016-12-25T05:03:03.868Z,0
2016-12-25T05:04:03.684Z,0
2016-12-25T05:05:03.817Z,0
2016-12-25T05:06:02.686Z,0
2016-12-25T05:07:03.372Z,0
2016-12-25T05:08:03.340Z,0
2016-12-25T05:09:02.776Z,0
2016-12-25T05:10:04.652Z,0
2016-12-25T05:11:02.799Z,0
2016-12-25T05:12:03.624Z,0
2016-12-25T05:13:03.542Z,0
2016-12-25T05:14:03.732Z,0
2016-12-25T05:15:03.377Z,0
2016-12-25T05:16:03.227Z,0
2016-12-25T05:17:03.599Z,0
2016-12-25T05:18:03.486Z,0
2016-12-25T05:19:03.692Z,0
2016-12-25T05:20:04.220Z,0
2016-12-25T05:21:03.756Z,0
2016-12-25T05:22:02.606Z,0
2016-12-25T05:23:03.308Z,0
2016-12-25T05:24:02.657Z,0
2016-12-25T05:25:04.233Z,0
2016-12-25T05:26:03.646Z,0
2016-12-25T05:27:04.135Z,0
2016-12-25T05:28:04.475Z,0
2016-12-25T05:29:04.043Z,0
2016-12-25T05:30:03.761Z,0
2016-12-25T05:31:04.347Z,0
2016-12-25T05:32:03.983Z,0
2016-12-25T05:33:03.624Z,0
2016-12-25T05:34:04.910Z,0
2016-12-25T05:35:03.777Z,0
2016-12-25T05:36:03.521Z,0
2016-12-25T05:37:03.926Z,0
2016-12-25T05:38:03.779Z,0
2016-12-25T05:39:03.335Z,0
2016-12-25T05:40:04.149Z,0
2016-12-25T05:41:03.874Z,0
2016-12-25T05:42:03.389Z,0
2016-12-25T05:43:03.877Z,0
2016-12-25T05:44:04.018Z,0
2016-12-25T05:45:03.992Z,0
2016-12-25T05:46:04.448Z,0
2016-12-25T05:47:03.997Z,0
2016-12-25T05:48:03.781Z,0
2016-12-25T05:49:04.194Z,0
2016-12-25T05:50:03.661Z,0
2016-12-25T05:51:03.907Z,0
2016-12-25T05:52:04.553Z,0
2016-12-25T05:53:04.349Z,0
2016-12-25T05:54:05.459Z,0
2016-12-25T05:55:03.537Z,0
2016-12-25T05:56:03.661Z,0
2016-12-25T05:57:03.767Z,0
2016-12-25T05:58:03.890Z,0
2016-12-25T05:59:04.739Z,0
2016-12-25T06:00:04.076Z,0
2016-12-25T06:01:05.259Z,0
2016-12-25T06:02:02.315Z,0
2016-12-25T06:05:29.145Z,0
2016-12-25T06:06:04.727Z,0
2016-12-25T06:07:04.608Z,0
2016-12-25T06:08:05.287Z,0
2016-12-25T06:09:04.798Z,0
2016-12-25T06:10:05.423Z,0
2016-12-25T06:11:07.653Z,0
2016-12-25T06:12:05.979Z,0
2016-12-25T06:13:08.630Z,0
2016-12-25T06:14:09.160Z,0
2016-12-25T06:15:09.255Z,0
2016-12-25T06:16:08.569Z,0
2016-12-25T06:17:06.880Z,0
2016-12-25T06:18:06.239Z,0
2016-12-25T06:19:11.524Z,0
2016-12-25T06:20:07.793Z,0
2016-12-25T06:21:06.927Z,0
2016-12-25T06:22:07.807Z,0
2016-12-25T06:23:08.562Z,0
2016-12-25T06:24:06.402Z,0
2016-12-25T06:25:07.561Z,0
2016-12-25T06:26:07.163Z,0
2016-12-25T06:27:07.452Z,0
2016-12-25T06:28:08.472Z,0
2016-12-25T06:29:05.117Z,0
2016-12-25T06:30:07.556Z,0
2016-12-25T06:31:07.215Z,0
2016-12-25T06:32:06.734Z,0
2016-12-25T06:33:06.531Z,0
2016-12-25T06:34:08.178Z,0
2016-12-25T06:35:05.072Z,0
2016-12-25T06:36:07.242Z,0
2016-12-25T06:37:05.738Z,0
2016-12-25T06:38:08.215Z,0
2016-12-25T06:39:07.539Z,0
2016-12-25T06:40:07.831Z,0
2016-12-25T06:41:06.476Z,0
2016-12-25T06:42:06.404Z,0
2016-12-25T06:43:06.454Z,0
2016-12-25T06:44:05.461Z,0
2016-12-25T06:45:06.152Z,0
2016-12-25T06:46:06.177Z,0
2016-12-25T06:47:07.765Z,0
2016-12-25T06:48:06.193Z,0
2016-12-25T06:49:08.349Z,0
2016-12-25T06:50:05.918Z,0
2016-12-25T06:51:09.398Z,0
2016-12-25T06:52:07.939Z,0
2016-12-25T06:53:05.934Z,0
2016-12-25T06:54:07.244Z,0
2016-12-25T06:55:06.880Z,0
2016-12-25T06:56:09.673Z,0
2016-12-25T06:57:05.908Z,0
2016-12-25T06:58:05.670Z,0
2016-12-25T06:59:06.788Z,0
2016-12-25T07:00:07.647Z,0
2016-12-25T07:01:06.229Z,0
2016-12-25T07:02:06.458Z,0
2016-12-25T07:03:06.931Z,0
2016-12-25T07:04:06.156Z,0
2016-12-25T07:05:06.473Z,0
2016-12-25T07:06:06.413Z,0
2016-12-25T07:07:07.054Z,0
2016-12-25T07:08:06.615Z,0
2016-12-25T07:09:06.215Z,0
2016-12-25T07:10:06.027Z,0
2016-12-25T07:11:05.589Z,0
2016-12-25T07:12:05.643Z,0
2016-12-25T07:13:05.631Z,0
2016-12-25T07:14:06.254Z,0
2016-12-25T07:15:07.943Z,0
2016-12-25T07:16:06.322Z,0
2016-12-25T07:17:05.927Z,0
2016-12-25T07:18:07.925Z,0
2016-12-25T07:19:07.904Z,0
2016-12-25T07:20:09.239Z,0
2016-12-25T07:21:09.458Z,0
2016-12-25T07:22:06.681Z,0
2016-12-25T07:23:10.321Z,0
2016-12-25T07:24:09.946Z,0
2016-12-25T07:25:08.940Z,0
2016-12-25T07:26:08.402Z,0
2016-12-25T07:27:12.114Z,0
2016-12-25T07:28:11.178Z,0
2016-12-25T07:29:09.107Z,5
2016-12-25T07:30:11.063Z,5
2016-12-25T07:31:08.195Z,5
2016-12-25T07:32:11.705Z,5
2016-12-25T07:33:08.549Z,5
2016-12-25T07:34:07.482Z,5
2016-12-25T07:35:09.721Z,5
2016-12-25T07:36:09.533Z,5
2016-12-25T07:37:09.893Z,5
2016-12-25T07:38:07.233Z,10
2016-12-25T07:39:10.413Z,10
2016-12-25T07:41:08.803Z,10
2016-12-25T07:42:06.955Z,10
2016-12-25T07:43:06.557Z,10
2016-12-25T07:44:07.862Z,10
2016-12-25T07:45:08.005Z,10
2016-12-25T07:48:10.170Z,10
2016-12-25T07:49:06.301Z,15
2016-12-25T07:50:06.920Z,15
2016-12-25T07:51:06.209Z,15
2016-12-25T07:52:06.150Z,10
2016-12-25T07:53:07.147Z,10
2016-12-25T07:54:07.044Z,10
2016-12-25T07:55:06.302Z,15
2016-12-25T07:56:06.582Z,15
2016-12-25T07:57:06.207Z,15
2016-12-25T07:58:06.383Z,15
2016-12-25T07:59:05.852Z,15
2016-12-25T08:00:06.826Z,20
2016-12-25T08:01:07.414Z,20
2016-12-25T08:02:05.862Z,20
2016-12-25T08:03:07.122Z,20
2016-12-25T08:04:05.804Z,20
2016-12-25T08:05:06.166Z,20
2016-12-25T08:06:05.606Z,20
2016-12-25T08:07:07.538Z,15
2016-12-25T08:08:06.224Z,15
2016-12-25T08:09:07.003Z,20
2016-12-25T08:10:05.969Z,20
2016-12-25T08:16:09.353Z,25
2016-12-25T08:17:05.829Z,30
2016-12-25T08:18:06.904Z,35
2016-12-25T08:19:06.057Z,35
2016-12-25T08:20:05.952Z,50
2016-12-25T08:21:06.549Z,55
2016-12-25T08:22:06.896Z,50
2016-12-25T08:23:07.196Z,45
2016-12-25T08:24:06.305Z,50
2016-12-25T08:25:05.680Z,55
2016-12-25T08:26:05.863Z,55
2016-12-25T08:27:05.764Z,65
2016-12-25T08:28:06.717Z,55
2016-12-25T08:29:06.204Z,60
2016-12-25T08:30:05.913Z,65
2016-12-25T08:31:06.305Z,65
2016-12-25T08:32:06.595Z,70
2016-12-25T08:33:06.713Z,90
2016-12-25T08:34:06.363Z,95
2016-12-25T08:35:06.529Z,90
2016-12-25T08:36:06.547Z,105
2016-12-25T08:37:08.427Z,90
2016-12-25T08:38:06.321Z,85
2016-12-25T08:39:06.581Z,90
2016-12-25T08:40:06.495Z,85
2016-12-25T08:41:06.784Z,90
2016-12-25T08:42:06.775Z,80
2016-12-25T08:43:08.256Z,85
2016-12-25T08:44:07.144Z,90
2016-12-25T08:45:06.806Z,85
2016-12-25T08:46:06.587Z,95
2016-12-25T08:47:06.358Z,85
2016-12-25T08:48:07.843Z,85
2016-12-25T08:49:07.413Z,75
2016-12-25T08:50:07.910Z,95
2016-12-25T08:51:07.090Z,85
2016-12-25T08:52:08.182Z,80
2016-12-25T08:53:06.061Z,60
2016-12-25T08:54:06.482Z,65
2016-12-25T08:55:06.228Z,60
2016-12-25T08:56:05.907Z,60
2016-12-25T08:57:06.712Z,50
2016-12-25T08:58:06.548Z,55
2016-12-25T08:59:06.565Z,70
2016-12-25T09:00:07.116Z,70
2016-12-25T09:01:07.117Z,70
2016-12-25T09:02:07.750Z,75
2016-12-25T09:03:06.282Z,85
2016-12-25T09:04:06.439Z,80
2016-12-25T09:05:06.509Z,85
2016-12-25T09:06:08.043Z,85
2016-12-25T09:07:07.313Z,85
2016-12-25T09:08:08.708Z,70
2016-12-25T09:09:11.416Z,80
2016-12-25T09:10:07.993Z,75
2016-12-25T09:11:06.491Z,80
2016-12-25T09:12:13.491Z,95
2016-12-25T09:13:08.228Z,95
2016-12-25T09:14:08.010Z,100
2016-12-25T09:15:08.497Z,90
2016-12-25T09:16:07.888Z,70
2016-12-25T09:17:08.190Z,60
2016-12-25T09:18:06.988Z,95
2016-12-25T09:19:08.342Z,90
2016-12-25T09:20:07.469Z,90
2016-12-25T09:21:07.025Z,90
2016-12-25T09:22:08.072Z,85
2016-12-25T09:23:07.108Z,90
2016-12-25T09:24:07.906Z,85
2016-12-25T09:25:07.970Z,90
2016-12-25T09:26:07.234Z,105
2016-12-25T09:27:08.318Z,115
2016-12-25T09:28:07.216Z,105
2016-12-25T09:29:06.859Z,115
2016-12-25T09:30:08.227Z,100
2016-12-25T09:31:06.860Z,120
2016-12-25T09:32:08.847Z,130
2016-12-25T09:33:08.521Z,115
2016-12-25T09:34:08.140Z,125
2016-12-25T09:35:07.238Z,115
2016-12-25T09:36:08.222Z,120
2016-12-25T09:37:07.230Z,150
2016-12-25T09:38:07.759Z,120
2016-12-25T09:39:07.002Z,115
2016-12-25T09:40:07.967Z,135
2016-12-25T09:41:07.099Z,190
2016-12-25T09:42:08.059Z,185
2016-12-25T09:43:07.096Z,215
2016-12-25T09:44:07.253Z,230
2016-12-25T09:45:07.870Z,155
2016-12-25T09:46:07.199Z,140
2016-12-25T09:47:09.507Z,170
2016-12-25T09:48:07.924Z,180
2016-12-25T09:49:08.318Z,150
2016-12-25T09:50:08.303Z,140
2016-12-25T09:51:07.879Z,155
2016-12-25T09:52:07.618Z,125
2016-12-25T09:53:07.861Z,170
2016-12-25T09:54:07.830Z,180
2016-12-25T09:55:07.751Z,140
2016-12-25T09:56:07.576Z,160
2016-12-25T09:57:08.602Z,185
2016-12-25T09:58:07.672Z,195
2016-12-25T09:59:07.370Z,200
2016-12-25T10:00:07.671Z,150
2016-12-25T10:01:08.308Z,155
2016-12-25T10:02:07.558Z,165
2016-12-25T10:03:08.207Z,170
2016-12-25T10:04:07.764Z,170
2016-12-25T10:05:08.410Z,210
2016-12-25T10:06:07.083Z,195
2016-12-25T10:07:07.521Z,190
2016-12-25T10:08:08.232Z,175
2016-12-25T10:09:08.138Z,165
2016-12-25T10:10:08.161Z,200
2016-12-25T10:11:07.406Z,190
2016-12-25T10:12:08.334Z,220
2016-12-25T10:13:08.814Z,200
2016-12-25T10:14:07.824Z,200
2016-12-25T10:15:08.404Z,220
2016-12-25T10:16:09.082Z,245
2016-12-25T10:17:09.328Z,215
2016-12-25T10:18:08.374Z,195
2016-12-25T10:19:09.682Z,190
2016-12-25T10:20:08.158Z,220
2016-12-25T10:21:09.280Z,200
2016-12-25T10:22:10.010Z,185
2016-12-25T10:23:09.955Z,175
2016-12-25T10:24:08.203Z,205
2016-12-25T10:25:09.296Z,175
2016-12-25T10:26:10.233Z,275
2016-12-25T10:27:07.879Z,215
2016-12-25T10:28:09.671Z,255
2016-12-25T10:29:09.887Z,255
2016-12-25T10:30:08.968Z,230
2016-12-25T10:31:08.976Z,195
2016-12-25T10:32:08.814Z,195
2016-12-25T10:33:08.539Z,215
2016-12-25T10:34:08.888Z,170
2016-12-25T10:35:09.375Z,155
2016-12-25T10:36:09.745Z,200
2016-12-25T10:37:09.403Z,185
2016-12-25T10:38:08.597Z,220
2016-12-25T10:39:09.421Z,280
2016-12-25T10:40:09.117Z,275
2016-12-25T10:41:09.136Z,255
2016-12-25T10:42:08.829Z,210
2016-12-25T10:43:09.036Z,145
2016-12-25T10:44:10.111Z,165
2016-12-25T10:45:07.948Z,190
2016-12-25T10:46:09.100Z,185
2016-12-25T10:47:07.858Z,250
2016-12-25T10:48:08.844Z,315
2016-12-25T10:49:09.619Z,340
2016-12-25T10:50:08.660Z,265
2016-12-25T10:51:09.211Z,205
2016-12-25T10:52:08.917Z,170
2016-12-25T10:53:09.399Z,250
2016-12-25T10:54:08.545Z,205
2016-12-25T10:55:09.251Z,165
2016-12-25T10:56:09.593Z,195
2016-12-25T10:57:09.436Z,265
2016-12-25T10:58:11.262Z,200
2016-12-25T10:59:09.124Z,220
2016-12-25T11:00:08.968Z,215
2016-12-25T11:01:09.686Z,270
2016-12-25T11:02:08.882Z,265
2016-12-25T11:03:09.161Z,245
2016-12-25T11:04:09.587Z,215
2016-12-25T11:05:09.461Z,245
2016-12-25T11:06:09.609Z,255
2016-12-25T11:07:08.709Z,305
2016-12-25T11:08:09.277Z,285
2016-12-25T11:09:08.842Z,270
2016-12-25T11:10:08.816Z,245
2016-12-25T11:11:08.741Z,255
2016-12-25T11:12:08.913Z,305
2016-12-25T11:13:08.805Z,255
2016-12-25T11:14:09.426Z,155
2016-12-25T11:15:09.320Z,140
2016-12-25T11:16:09.714Z,185
2016-12-25T11:17:09.561Z,200
2016-12-25T11:18:09.280Z,170
2016-12-25T11:19:08.665Z,225
2016-12-25T11:20:08.872Z,205
2016-12-25T11:21:10.213Z,245
2016-12-25T11:22:10.731Z,240
2016-12-25T11:23:08.810Z,270
2016-12-25T11:24:10.054Z,270
2016-12-25T11:25:09.053Z,240
2016-12-25T11:26:09.395Z,195
2016-12-25T11:27:09.617Z,230
2016-12-25T11:28:09.133Z,190
2016-12-25T11:29:09.507Z,190
2016-12-25T11:30:09.641Z,225
2016-12-25T11:31:10.343Z,170
2016-12-25T11:32:08.564Z,180
2016-12-25T11:33:09.562Z,180
2016-12-25T11:34:11.381Z,160
2016-12-25T11:35:09.648Z,160
2016-12-25T11:36:10.941Z,135
2016-12-25T11:37:09.947Z,160
2016-12-25T11:38:09.342Z,135
2016-12-25T11:39:09.838Z,150
2016-12-25T11:40:09.838Z,150
2016-12-25T11:41:10.095Z,125
2016-12-25T11:42:10.057Z,120
2016-12-25T11:43:09.698Z,135
2016-12-25T11:44:09.152Z,130
2016-12-25T11:45:09.811Z,120
2016-12-25T11:46:09.046Z,95
2016-12-25T11:47:09.651Z,95
2016-12-25T11:48:09.839Z,120
2016-12-25T11:49:09.619Z,110
2016-12-25T11:50:09.403Z,95
2016-12-25T11:51:10.283Z,100
2016-12-25T11:52:08.727Z,105
2016-12-25T11:53:10.359Z,95
2016-12-25T11:54:09.772Z,80
2016-12-25T11:55:09.504Z,80
2016-12-25T11:56:09.329Z,90
2016-12-25T11:57:09.260Z,95
2016-12-25T11:58:10.275Z,100
2016-12-25T11:59:09.706Z,100
2016-12-25T12:00:10.051Z,100
2016-12-25T12:01:09.829Z,130
2016-12-25T12:02:09.944Z,110
2016-12-25T12:03:09.699Z,95
2016-12-25T12:04:10.404Z,100
2016-12-25T12:05:09.190Z,90
2016-12-25T12:06:10.344Z,95
2016-12-25T12:07:09.516Z,85
2016-12-25T12:08:09.176Z,110
2016-12-25T12:09:10.586Z,115
2016-12-25T12:10:09.954Z,120
2016-12-25T12:11:10.412Z,120
2016-12-25T12:12:10.047Z,145
2016-12-25T12:13:09.352Z,120
2016-12-25T12:14:09.962Z,95
2016-12-25T12:15:11.658Z,115
2016-12-25T12:16:10.853Z,130
2016-12-25T12:17:10.397Z,160
2016-12-25T12:18:10.289Z,205
2016-12-25T12:19:10.718Z,165
2016-12-25T12:20:09.266Z,175
2016-12-25T12:21:10.015Z,185
2016-12-25T12:22:09.844Z,155
2016-12-25T12:23:09.544Z,145
2016-12-25T12:24:10.166Z,120
2016-12-25T12:25:10.655Z,100
2016-12-25T12:26:09.315Z,100
2016-12-25T12:27:10.980Z,125
2016-12-25T12:28:10.486Z,125
2016-12-25T12:29:10.503Z,110
2016-12-25T12:30:09.444Z,125
2016-12-25T12:31:09.601Z,95
2016-12-25T12:32:10.983Z,115
2016-12-25T12:33:10.653Z,125
2016-12-25T12:34:10.367Z,140
2016-12-25T12:35:09.788Z,130
2016-12-25T12:36:10.695Z,145
2016-12-25T12:37:11.441Z,145
2016-12-25T12:38:11.634Z,110
2016-12-25T12:39:11.690Z,115
2016-12-25T12:40:10.859Z,100
2016-12-25T12:41:10.280Z,115
2016-12-25T12:42:10.173Z,115
2016-12-25T12:43:10.732Z,95
2016-12-25T12:44:10.539Z,90
2016-12-25T12:45:11.092Z,90
2016-12-25T12:46:11.966Z,95
2016-12-25T12:47:10.547Z,105
2016-12-25T12:48:10.720Z,95
2016-12-25T12:49:10.721Z,95
2016-12-25T12:50:10.661Z,85
2016-12-25T12:51:09.888Z,85
2016-12-25T12:52:10.687Z,110
2016-12-25T12:53:10.601Z,110
2016-12-25T12:54:11.131Z,85
2016-12-25T12:55:10.543Z,95
2016-12-25T12:56:10.630Z,90
2016-12-25T12:57:10.513Z,95
2016-12-25T12:58:11.445Z,90
2016-12-25T12:59:11.980Z,90
2016-12-25T13:00:11.174Z,100
2016-12-25T13:01:10.957Z,115
2016-12-25T13:02:11.520Z,120
2016-12-25T13:03:10.960Z,90
2016-12-25T13:04:11.397Z,90
2016-12-25T13:05:11.321Z,100
2016-12-25T13:06:13.199Z,110
2016-12-25T13:07:11.361Z,100
2016-12-25T13:08:12.851Z,95
2016-12-25T13:09:12.093Z,95
2016-12-25T13:10:12.103Z,80
2016-12-25T13:11:11.833Z,75
2016-12-25T13:12:12.088Z,75
2016-12-25T13:13:11.931Z,80
2016-12-25T13:14:10.996Z,85
2016-12-25T13:15:12.161Z,80
2016-12-25T13:16:11.798Z,85
2016-12-25T13:17:11.289Z,95
2016-12-25T13:18:11.614Z,90
2016-12-25T13:19:11.575Z,90
2016-12-25T13:20:11.634Z,75
2016-12-25T13:21:12.577Z,80
2016-12-25T13:22:10.924Z,80
2016-12-25T13:23:11.247Z,80
2016-12-25T13:24:11.362Z,85
2016-12-25T13:25:11.967Z,75
2016-12-25T13:26:11.036Z,70
2016-12-25T13:27:12.066Z,65
2016-12-25T13:28:12.372Z,70
2016-12-25T13:29:11.531Z,75
2016-12-25T13:30:11.557Z,75
2016-12-25T13:31:12.068Z,70
2016-12-25T13:32:12.094Z,70
2016-12-25T13:33:11.050Z,65
2016-12-25T13:34:11.720Z,55
2016-12-25T13:35:12.636Z,65
2016-12-25T13:36:11.443Z,55
2016-12-25T13:37:12.032Z,65
2016-12-25T13:38:13.123Z,60
2016-12-25T13:39:12.609Z,55
2016-12-25T13:40:12.707Z,60
2016-12-25T13:41:11.229Z,60
2016-12-25T13:42:13.185Z,55
2016-12-25T13:43:12.029Z,55
2016-12-25T13:44:12.375Z,55
2016-12-25T13:45:11.271Z,65
2016-12-25T13:46:12.673Z,60
2016-12-25T13:47:11.857Z,45
2016-12-25T13:48:12.286Z,50
2016-12-25T13:49:11.839Z,45
2016-12-25T13:50:11.931Z,55
2016-12-25T13:51:12.016Z,55
2016-12-25T13:52:11.727Z,50
2016-12-25T13:53:14.603Z,45
2016-12-25T13:54:12.924Z,45
2016-12-25T13:55:13.241Z,60
2016-12-25T13:56:12.497Z,55
2016-12-25T13:57:12.252Z,50
2016-12-25T13:58:12.631Z,45
2016-12-25T13:59:12.176Z,45
2016-12-25T14:00:11.969Z,50
2016-12-25T14:01:13.064Z,45
2016-12-25T14:02:13.494Z,50
2016-12-25T14:03:13.505Z,45
2016-12-25T14:04:13.957Z,50
2016-12-25T14:05:13.509Z,50
2016-12-25T14:06:12.480Z,50
2016-12-25T14:07:12.476Z,45
2016-12-25T14:08:12.524Z,50
2016-12-25T14:09:12.000Z,50
2016-12-25T14:10:12.804Z,40
2016-12-25T14:11:12.819Z,45
2016-12-25T14:12:12.318Z,45
2016-12-25T14:13:11.735Z,45
2016-12-25T14:14:12.697Z,40
2016-12-25T14:15:12.364Z,35
2016-12-25T14:16:13.992Z,30
2016-12-25T14:17:12.564Z,30
2016-12-25T14:18:12.575Z,30
2016-12-25T14:19:13.987Z,30
2016-12-25T14:20:13.329Z,35
2016-12-25T14:21:12.335Z,30
2016-12-25T14:22:12.881Z,25
2016-12-25T14:23:12.147Z,20
2016-12-25T14:24:12.024Z,25
2016-12-25T14:25:12.355Z,20
2016-12-25T14:26:12.341Z,25
2016-12-25T14:27:13.311Z,20
2016-12-25T14:28:14.087Z,20
2016-12-25T14:29:12.695Z,20
2016-12-25T14:30:13.398Z,20
2016-12-25T14:31:12.427Z,20
2016-12-25T14:32:12.128Z,20
2016-12-25T14:33:13.333Z,25
2016-12-25T14:34:12.154Z,20
2016-12-25T14:35:12.855Z,25